createdAt,value
2018-09-28T00:01:02.010Z,14.57
2018-09-28T00:03:30.286Z,15.53
2018-09-28T00:05:58.561Z,15.10
2018-09-28T00:08:26.824Z,13.90
2018-09-28T00:10:55.068Z,15.60
2018-09-28T00:13:29.511Z,13.70
2018-09-28T00:27:27.207Z,12.77
2018-09-28T00:29:55.438Z,14.37
2018-09-28T00:32:23.684Z,13.20
2018-09-28T00:34:52.026Z,11.30
2018-09-28T00:37:20.287Z,5.23
2018-09-28T00:39:48.561Z,6.40
2018-09-28T00:42:16.875Z,5.13
2018-09-28T00:44:45.108Z,2.67
2018-09-28T00:47:13.371Z,3.57
2018-09-28T00:49:41.633Z,3.97
2018-09-28T00:52:09.886Z,4.07
2018-09-28T00:54:38.161Z,4.37
2018-09-28T00:57:06.511Z,6.57
2018-09-28T00:59:34.740Z,6.77
2018-09-28T01:02:03.017Z,8.47
2018-09-28T01:04:31.257Z,5.30
2018-09-28T01:06:59.527Z,4.37
2018-09-28T01:09:27.770Z,6.37
2018-09-28T01:11:56.047Z,5.50
2018-09-28T01:17:39.486Z,8.00
2018-09-28T01:20:27.599Z,7.80
2018-09-28T01:25:48.144Z,7.67
2018-09-28T02:16:50.988Z,6.37
2018-09-28T02:19:32.088Z,6.57
2018-09-28T02:22:00.394Z,6.03
2018-09-28T02:24:28.736Z,7.30
2018-09-28T02:26:56.973Z,7.53
2018-09-28T02:29:25.222Z,6.57
2018-09-28T02:31:53.477Z,10.77
2018-09-28T02:34:21.721Z,8.70
2018-09-28T02:36:49.974Z,14.13
2018-09-28T02:39:18.237Z,10.57
2018-09-28T02:41:46.477Z,8.37
2018-09-28T02:44:14.727Z,9.97
2018-09-28T02:46:42.981Z,13.73
2018-09-28T02:49:11.225Z,12.10
2018-09-28T02:51:39.485Z,9.17
2018-09-28T02:54:07.746Z,12.60
2018-09-28T02:56:35.982Z,17.87
2018-09-28T02:59:04.237Z,13.60
2018-09-28T03:01:32.498Z,12.47
2018-09-28T03:04:00.852Z,11.80
2018-09-28T03:06:29.232Z,10.13
2018-09-28T03:08:57.472Z,15.37
2018-09-28T03:11:25.728Z,10.50
2018-09-28T03:14:13.730Z,10.63
2018-09-28T03:16:41.994Z,13.73
2018-09-28T03:19:10.257Z,9.27
2018-09-28T03:21:50.490Z,13.50
2018-09-28T05:13:02.488Z,10.03
2018-09-28T05:15:30.793Z,9.27
2018-09-28T05:17:59.085Z,12.60
2018-09-28T05:20:27.349Z,7.73
2018-09-28T05:23:05.944Z,11.17
2018-09-28T06:14:17.653Z,11.03
2018-09-28T06:16:45.914Z,9.07
2018-09-28T06:19:14.239Z,9.97
2018-09-28T06:24:35.183Z,10.80
2018-09-28T06:39:04.956Z,11.93
2018-09-28T06:41:33.209Z,9.43
2018-09-28T06:44:01.460Z,6.63
2018-09-28T06:46:29.738Z,7.50
2018-09-28T06:48:57.986Z,9.33
2018-09-28T06:51:26.319Z,9.60
2018-09-28T06:53:54.612Z,8.07
2018-09-28T06:56:22.892Z,13.13
2018-09-28T06:58:51.147Z,10.07
2018-09-28T07:01:19.445Z,8.73
2018-09-28T07:03:47.727Z,9.20
2018-09-28T07:06:16.015Z,8.77
2018-09-28T07:08:44.257Z,11.03
2018-09-28T07:11:12.490Z,5.87
2018-09-28T07:19:25.649Z,9.43
2018-09-28T07:24:46.661Z,14.07
2018-09-28T08:15:49.178Z,7.53
2018-09-28T08:18:18.374Z,6.40
2018-09-28T08:20:47.801Z,8.50
2018-09-28T08:23:18.697Z,12.10
2018-09-28T08:25:46.914Z,11.80
2018-09-28T08:28:15.209Z,11.37
2018-09-28T08:33:26.106Z,9.73
2018-09-28T08:35:54.375Z,9.87
2018-09-28T08:38:22.653Z,7.50
2018-09-28T08:40:50.958Z,8.27
2018-09-28T08:43:19.210Z,6.60
2018-09-28T08:45:47.472Z,10.20
2018-09-28T08:48:15.725Z,7.83
2018-09-28T08:50:43.988Z,11.97
2018-09-28T08:53:12.229Z,6.80
2018-09-28T08:55:40.501Z,7.63
2018-09-28T08:58:08.749Z,13.40
2018-09-28T09:00:36.993Z,7.33
2018-09-28T09:03:05.229Z,8.93
2018-09-28T09:05:33.487Z,10.03
2018-09-28T09:08:01.750Z,8.57
2018-09-28T09:10:30.000Z,9.13
2018-09-28T09:12:58.242Z,3.97
2018-09-28T10:18:30.683Z,11.80
2018-09-28T10:26:44.129Z,6.47
2018-09-28T10:29:12.369Z,4.77
2018-09-28T10:31:40.604Z,6.03
2018-09-28T10:34:08.878Z,6.63
2018-09-28T10:36:37.106Z,10.27
2018-09-28T10:39:06.771Z,3.93
2018-09-28T10:41:35.913Z,7.10
2018-09-28T10:44:04.410Z,6.30
2018-09-28T10:46:32.662Z,6.07
2018-09-28T10:49:00.973Z,7.00
2018-09-28T10:51:29.310Z,5.20
2018-09-28T10:53:57.645Z,5.30
2018-09-28T10:56:25.931Z,5.20
2018-09-28T10:58:54.270Z,4.70
2018-09-28T11:01:22.473Z,6.53
2018-09-28T11:03:50.806Z,4.97
2018-09-28T11:06:18.977Z,7.47
2018-09-28T11:08:47.341Z,10.27
2018-09-28T11:11:15.518Z,7.97
2018-09-28T11:25:13.202Z,5.07
2018-09-28T12:16:13.222Z,7.67
2018-09-28T12:18:41.511Z,9.77
2018-09-28T12:21:21.772Z,3.50
2018-09-28T12:26:42.573Z,4.33
2018-09-28T12:29:10.864Z,5.07
2018-09-28T12:31:39.105Z,4.07
2018-09-28T12:34:07.386Z,4.60
2018-09-28T12:36:35.666Z,6.30
2018-09-28T12:39:05.242Z,5.73
2018-09-28T12:41:33.501Z,4.80
2018-09-28T12:44:01.761Z,5.30
2018-09-28T12:46:30.002Z,5.17
2018-09-28T12:48:58.275Z,6.70
2018-09-28T12:51:26.517Z,5.00
2018-09-28T12:53:54.768Z,4.70
2018-09-28T12:56:23.003Z,4.27
2018-09-28T12:58:51.258Z,4.07
2018-09-28T13:04:15.765Z,3.83
2018-09-28T13:06:44.041Z,3.60
2018-09-28T13:09:12.359Z,5.00
2018-09-28T13:11:40.585Z,4.03
2018-09-28T14:12:14.897Z,5.27
2018-09-28T14:26:14.966Z,7.87
2018-09-28T14:28:43.234Z,4.13
2018-09-28T14:31:11.508Z,8.23
2018-09-28T14:33:39.792Z,3.27
2018-09-28T14:36:08.142Z,5.20
2018-09-28T14:38:36.451Z,2.90
2018-09-28T14:41:04.677Z,4.37
2018-09-28T14:43:32.936Z,5.03
2018-09-28T14:46:01.201Z,4.67
2018-09-28T14:48:29.496Z,6.23
2018-09-28T14:50:57.706Z,4.33
2018-09-28T14:53:26.108Z,5.30
2018-09-28T14:55:54.675Z,3.73
2018-09-28T14:58:23.002Z,4.13
2018-09-28T15:00:51.539Z,4.77
2018-09-28T15:03:20.056Z,5.93
2018-09-28T15:05:48.532Z,6.07
2018-09-28T15:08:16.899Z,4.33
2018-09-28T15:10:45.156Z,7.17
2018-09-28T15:13:13.987Z,8.03
2018-09-28T16:16:07.934Z,3.13
2018-09-28T16:18:36.284Z,6.13
2018-09-28T16:21:04.524Z,4.93
2018-09-28T16:23:36.765Z,2.97
2018-09-28T16:57:54.592Z,4.03
2018-09-28T17:00:22.922Z,14.67
2018-09-28T17:02:51.156Z,5.80
2018-09-28T17:05:19.418Z,6.27
2018-09-28T17:07:47.681Z,3.87
2018-09-28T17:10:15.903Z,4.83
2018-09-28T17:12:45.273Z,2.60
2018-09-28T17:23:52.317Z,2.57
2018-09-28T17:26:20.595Z,2.50
2018-09-28T18:26:52.799Z,5.80
2018-09-28T18:29:27.474Z,4.60
2018-09-28T18:31:55.834Z,5.33
2018-09-28T18:34:24.128Z,7.10
2018-09-28T18:36:52.372Z,7.20
2018-09-28T18:39:21.574Z,4.10
2018-09-28T18:41:49.839Z,4.53
2018-09-28T18:44:18.139Z,3.07
2018-09-28T18:46:46.449Z,5.00
2018-09-28T18:49:14.726Z,5.67
2018-09-28T18:51:43.010Z,10.03
2018-09-28T18:54:11.277Z,5.23
2018-09-28T18:56:39.546Z,7.50
2018-09-28T18:59:08.734Z,3.30
2018-09-28T19:01:37.033Z,3.50
2018-09-28T19:04:05.331Z,3.17
2018-09-28T19:06:33.610Z,4.10
2018-09-28T19:09:01.849Z,3.33
2018-09-28T19:11:30.101Z,3.37
2018-09-28T19:13:58.429Z,2.80
2018-09-28T19:16:26.729Z,3.53
2018-09-28T19:18:55.005Z,6.47
2018-09-28T19:27:08.829Z,2.83
2018-09-28T19:29:37.154Z,2.00
2018-09-28T19:32:05.469Z,1.83
2018-09-28T19:34:33.800Z,5.57
2018-09-28T19:37:02.037Z,3.80
2018-09-28T19:39:30.333Z,4.60
2018-09-28T19:41:58.637Z,11.40
2018-09-28T19:44:26.937Z,4.10
2018-09-28T19:46:55.271Z,3.60
2018-09-28T19:49:23.577Z,5.97
2018-09-28T19:51:51.854Z,2.47
2018-09-28T19:54:20.257Z,2.80
2018-09-28T19:56:48.666Z,3.23
2018-09-28T19:59:16.985Z,5.97
2018-09-28T20:01:45.289Z,1.83
2018-09-28T20:04:13.593Z,5.47
2018-09-28T20:06:41.876Z,7.17
2018-09-28T20:09:11.269Z,4.47
2018-09-28T20:11:39.912Z,3.97
2018-09-28T20:14:08.540Z,4.07
2018-09-28T21:14:12.481Z,7.00
2018-09-28T22:14:13.301Z,4.03
2018-09-28T23:23:23.800Z,6.20
